Time;durP1;ratioP1;P1;durP2;ratioP2;P2;SDS_P1;SDS_P2;PMS_P1;PMS_P2;Temp;Humidity;BMP_temperature;BMP_pressure;BME280_temperature;BME280_humidity;BME280_pressure;Samples;Min_cycle;Max_cycle;Signal;HPM_P1;HPM_P2
2023/02/23 00:02:21;;;;;;;47.95;34.63;;;;;;;10.35;100.00;101167.09;5206878;28;20032;-72
2023/02/23 00:04:52;;;;;;;47.40;35.35;;;;;;;10.36;100.00;101173.16;5225274;28;20025;-72
2023/02/23 00:07:25;;;;;;;47.10;34.97;;;;;;;10.37;100.00;101170.41;5222373;28;20029;-72
2023/02/23 00:09:57;;;;;;;45.13;34.10;;;;;;;10.37;100.00;101167.78;5223881;28;20030;-71
2023/02/23 00:12:28;;;;;;;47.90;35.33;;;;;;;10.30;100.00;101158.75;5224508;28;20076;-71
2023/02/23 00:15:00;;;;;;;43.85;33.97;;;;;;;10.30;100.00;101156.13;5221389;28;20513;-72
2023/02/23 00:17:32;;;;;;;46.70;36.22;;;;;;;10.39;100.00;101163.28;5229063;28;20463;-71
2023/02/23 00:20:10;;;;;;;47.00;36.53;;;;;;;10.38;100.00;101160.75;5229240;28;20026;-72
2023/02/23 00:22:41;;;;;;;47.67;37.28;;;;;;;10.36;100.00;101160.06;5224094;28;20373;-72
2023/02/23 00:25:14;;;;;;;47.40;35.03;;;;;;;10.38;100.00;101160.75;5229459;28;20037;-71
2023/02/23 00:27:45;;;;;;;46.28;36.28;;;;;;;10.34;100.00;101159.34;5225195;28;20049;-72
2023/02/23 00:30:18;;;;;;;50.65;36.67;;;;;;;10.42;100.00;101160.44;5224681;28;20030;-71
2023/02/23 00:32:51;;;;;;;46.70;35.38;;;;;;;10.39;100.00;101165.91;5225771;28;20476;-71
2023/02/23 00:35:23;;;;;;;47.10;35.15;;;;;;;10.41;100.00;101161.34;5228443;28;20398;-72
2023/02/23 00:37:55;;;;;;;49.42;35.10;;;;;;;10.43;100.00;101161.25;5227785;28;20022;-71
2023/02/23 00:40:26;;;;;;;49.45;36.05;;;;;;;10.34;100.00;101154.09;5220686;28;20783;-72
2023/02/23 00:42:57;;;;;;;47.80;35.35;;;;;;;10.33;100.00;101157.69;5228984;28;20034;-72
2023/02/23 00:45:29;;;;;;;45.75;34.35;;;;;;;10.42;100.00;101157.81;5228606;28;20029;-72
2023/02/23 00:48:02;;;;;;;53.58;37.92;;;;;;;10.40;100.00;101154.47;5228397;28;20104;-71
2023/02/23 00:50:33;;;;;;;43.53;34.80;;;;;;;10.40;100.00;101154.47;5228711;28;20116;-72
2023/02/23 00:53:05;;;;;;;48.53;36.13;;;;;;;10.27;100.00;101142.47;5222826;28;20168;-71
2023/02/23 00:55:40;;;;;;;49.15;37.00;;;;;;;10.48;100.00;101157.31;5226975;28;20412;-72
2023/02/23 00:58:12;;;;;;;45.65;35.25;;;;;;;10.37;100.00;101157.31;5226747;28;20029;-72
2023/02/23 01:00:44;;;;;;;55.75;39.08;;;;;;;10.33;100.00;101163.75;5223116;28;20507;-72
2023/02/23 01:03:15;;;;;;;54.83;40.25;;;;;;;10.22;100.00;101155.88;5227272;28;20030;-71
2023/02/23 01:05:48;;;;;;;53.05;40.08;;;;;;;10.22;100.00;101161.09;5222038;28;20032;-72
2023/02/23 01:08:21;;;;;;;59.85;42.08;;;;;;;10.17;100.00;101164.09;5220526;28;20033;-71
2023/02/23 01:10:52;;;;;;;61.63;41.72;;;;;;;10.16;100.00;101156.38;5225992;28;20034;-72
2023/02/23 01:13:26;;;;;;;64.18;44.28;;;;;;;10.14;100.00;101166.94;5210604;28;20022;-71
2023/02/23 01:15:58;;;;;;;65.10;44.15;;;;;;;10.14;100.00;101163.50;5224645;28;20029;-72
2023/02/23 01:18:29;;;;;;;59.78;42.88;;;;;;;10.16;100.00;101164.22;5224129;28;20040;-72
2023/02/23 01:21:02;;;;;;;59.20;42.35;;;;;;;10.16;100.00;101165.06;5226955;28;20035;-72
2023/02/23 01:23:33;;;;;;;59.65;41.50;;;;;;;10.17;100.00;101158.84;5222421;28;20042;-72
2023/02/23 01:26:04;;;;;;;61.33;45.35;;;;;;;10.17;100.00;101166.72;5222062;28;20531;-72
2023/02/23 01:28:36;;;;;;;65.68;44.22;;;;;;;10.17;100.00;101169.31;5222249;28;20507;-72
2023/02/23 01:31:08;;;;;;;60.42;42.35;;;;;;;10.15;100.00;101162.53;5207727;28;20503;-72
2023/02/23 01:33:39;;;;;;;58.37;41.90;;;;;;;10.18;100.00;101164.91;5220498;28;20510;-72
2023/02/23 01:36:12;;;;;;;62.97;42.55;;;;;;;10.18;100.00;101170.16;5223833;28;20033;-72
2023/02/23 01:38:43;;;;;;;64.35;42.92;;;;;;;10.16;100.00;101169.47;5222706;28;20057;-71
2023/02/23 01:41:15;;;;;;;64.50;45.28;;;;;;;10.16;100.00;101172.91;5225189;28;20029;-71
2023/02/23 01:44:26;;;;;;;64.40;42.38;;;;;;;10.44;100.00;101165.53;5222751;28;20026;-72
2023/02/23 01:46:58;;;;;;;64.80;44.88;;;;;;;10.11;100.00;101174.19;5220740;28;20069;-72
2023/02/23 01:49:33;;;;;;;61.65;42.38;;;;;;;10.06;100.00;101174.56;5221671;28;20045;-72
2023/02/23 01:52:12;;;;;;;63.35;42.97;;;;;;;10.25;100.00;101171.38;5222275;28;20030;-72
2023/02/23 01:54:50;;;;;;;61.15;43.05;;;;;;;10.13;100.00;101172.31;5225204;28;20057;-72
2023/02/23 01:57:25;;;;;;;63.58;41.97;;;;;;;9.98;100.00;101176.94;5222307;28;20030;-71
2023/02/23 01:59:57;;;;;;;65.88;44.47;;;;;;;9.99;100.00;101181.22;5224747;28;20390;-72
2023/02/23 02:02:32;;;;;;;67.57;43.97;;;;;;;9.97;100.00;101176.13;5221899;28;20017;-72
2023/02/23 02:05:07;;;;;;;61.63;43.13;;;;;;;9.89;100.00;101175.03;5222946;28;20029;-72
2023/02/23 02:07:44;;;;;;;61.53;42.78;;;;;;;9.96;100.00;101182.31;5225764;28;20026;-72
2023/02/23 02:12:55;;;;;;;67.15;45.78;;;;;;;9.96;100.00;101190.16;5223721;28;20033;-71
2023/02/23 02:15:32;;;;;;;65.45;43.05;;;;;;;9.95;100.00;101185.84;5203184;28;20064;-72
2023/02/23 02:18:17;;;;;;;64.47;44.13;;;;;;;9.96;100.00;101184.06;5226190;28;20376;-72
2023/02/23 02:21:35;;;;;;;61.53;42.95;;;;;;;10.11;100.00;101180.25;5222976;28;20036;-72
2023/02/23 02:24:37;;;;;;;65.38;43.70;;;;;;;10.03;100.00;101176.59;5224226;28;20068;-72
2023/02/23 02:27:29;;;;;;;61.38;41.90;;;;;;;9.98;100.00;101180.38;5225698;28;20037;-72
2023/02/23 02:30:18;;;;;;;66.18;42.05;;;;;;;9.73;100.00;101181.41;5220653;28;21141;-71
2023/02/23 02:33:11;;;;;;;60.92;41.67;;;;;;;9.80;100.00;101180.97;5226889;28;20029;-71
2023/02/23 02:35:48;;;;;;;62.53;40.47;;;;;;;9.75;100.00;101171.69;5222031;28;20037;-72
2023/02/23 02:38:28;;;;;;;65.47;42.05;;;;;;;9.74;100.00;101183.09;5221030;28;20057;-72
2023/02/23 02:41:10;;;;;;;65.65;43.15;;;;;;;9.74;100.00;101182.28;5222862;28;20026;-72
2023/02/23 02:43:45;;;;;;;66.60;42.70;;;;;;;9.59;100.00;101172.97;5225464;28;20108;-71
2023/02/23 02:46:30;;;;;;;67.35;43.22;;;;;;;9.77;100.00;101179.41;5222605;28;20033;-72
2023/02/23 02:49:13;;;;;;;64.13;41.95;;;;;;;9.71;100.00;101174.66;5225701;28;20032;-72
2023/02/23 02:51:54;;;;;;;;;;;;;;;10.28;100.00;101175.56;5223638;28;20132;-71
2023/02/23 02:54:37;;;;;;;63.38;40.60;;;;;;;9.84;100.00;101182.41;5216752;28;20067;-72
2023/02/23 02:57:11;;;;;;;61.65;41.08;;;;;;;9.65;100.00;101178.56;5220734;28;20072;-72
2023/02/23 04:19:58;;;;;;;64.63;44.40;;;;;;;9.42;100.00;101214.28;5220691;28;20026;-71
2023/02/23 04:22:29;;;;;;;66.60;43.15;;;;;;;9.40;100.00;101216.19;5226080;28;20368;-71
2023/02/23 04:25:01;;;;;;;63.13;42.28;;;;;;;9.31;100.00;101203.78;5226010;28;20514;-71
2023/02/23 04:27:32;;;;;;;68.53;45.45;;;;;;;9.35;100.00;101220.91;5207231;28;20491;-70
2023/02/23 04:30:04;;;;;;;68.03;45.28;;;;;;;9.30;100.00;101209.97;5228949;28;20395;-71
2023/02/23 04:32:36;;;;;;;62.97;42.33;;;;;;;9.25;100.00;101220.75;5205168;28;20040;-71
2023/02/23 04:35:08;;;;;;;64.40;43.50;;;;;;;9.25;100.00;101223.38;5224678;28;20038;-71
2023/02/23 04:37:40;;;;;;;63.40;44.22;;;;;;;9.32;100.00;101221.16;5226479;28;20042;-71
2023/02/23 04:40:11;;;;;;;62.13;42.83;;;;;;;9.31;100.00;101223.88;5224698;28;20045;-71
2023/02/23 04:42:43;;;;;;;67.30;45.05;;;;;;;9.38;100.00;101222.47;5225025;28;20045;-72
2023/02/23 04:45:14;;;;;;;64.38;42.40;;;;;;;9.32;100.00;101217.69;5226407;28;20459;-72
2023/02/23 04:47:45;;;;;;;64.35;43.83;;;;;;;9.26;100.00;101219.81;5224156;28;20044;-71
2023/02/23 04:50:18;;;;;;;61.05;41.88;;;;;;;9.22;100.00;101226.22;5227643;28;20044;-71
2023/02/23 04:52:50;;;;;;;59.77;40.37;;;;;;;9.27;100.00;101228.47;5224834;28;20498;-71
2023/02/23 04:55:23;;;;;;;62.67;41.37;;;;;;;9.29;100.00;101226.59;5225972;28;20098;-72
2023/02/23 04:58:00;;;;;;;59.85;41.80;;;;;;;9.38;100.00;101227.69;5222457;28;20037;-71
2023/02/23 05:00:32;;;;;;;61.78;41.42;;;;;;;9.21;100.00;101231.56;5203891;28;20392;-71
2023/02/23 05:03:04;;;;;;;62.85;43.30;;;;;;;9.25;100.00;101225.16;5228093;28;20566;-72
2023/02/23 05:05:35;;;;;;;63.50;41.90;;;;;;;9.20;100.00;101219.41;5221264;28;20031;-71
2023/02/23 05:08:07;;;;;;;63.20;41.95;;;;;;;9.21;100.00;101234.19;5224416;28;20092;-72
2023/02/23 05:10:38;;;;;;;61.15;41.35;;;;;;;9.24;100.00;101237.41;5224371;28;20377;-71
2023/02/23 05:13:09;;;;;;;63.40;41.40;;;;;;;9.20;100.00;101222.84;5219034;28;20030;-71
2023/02/23 05:15:41;;;;;;;58.50;40.47;;;;;;;9.30;100.00;101230.88;5227898;28;20025;-71
2023/02/23 05:18:12;;;;;;;63.70;41.97;;;;;;;9.31;100.00;101237.78;5227572;28;20455;-72
2023/02/23 05:20:43;;;;;;;61.33;41.38;;;;;;;9.25;100.00;101239.06;5225535;28;20033;-71
2023/02/23 05:23:15;;;;;;;57.83;39.95;;;;;;;9.26;100.00;101232.88;5222162;28;20033;-71
2023/02/23 05:25:46;;;;;;;59.35;41.03;;;;;;;9.26;100.00;101237.28;5225280;28;20056;-71
2023/02/23 05:28:17;;;;;;;59.25;40.83;;;;;;;9.26;100.00;101240.72;5223763;28;20541;-71
2023/02/23 05:30:48;;;;;;;59.72;41.10;;;;;;;9.18;100.00;101234.41;5220407;28;20040;-71
2023/02/23 05:33:20;;;;;;;57.15;40.20;;;;;;;9.21;100.00;101239.41;5222165;28;20499;-71
2023/02/23 05:35:51;;;;;;;58.55;40.72;;;;;;;9.25;100.00;101243.47;5219664;28;20029;-71
2023/02/23 05:38:23;;;;;;;62.92;42.05;;;;;;;9.30;100.00;101241.34;5227152;28;20017;-71
2023/02/23 05:40:55;;;;;;;64.07;42.45;;;;;;;9.21;100.00;101248.06;5221390;28;20032;-71
2023/02/23 05:43:26;;;;;;;60.58;39.67;;;;;;;9.23;100.00;101250.56;5225551;28;20088;-72
2023/02/23 05:45:58;;;;;;;58.63;41.50;;;;;;;9.23;100.00;101254.00;5225403;28;20025;-71
2023/02/23 05:48:29;;;;;;;55.53;38.85;;;;;;;9.25;100.00;101248.69;5222958;28;20029;-71
2023/02/23 05:51:06;;;;;;;57.03;38.88;;;;;;;9.34;100.00;101255.03;5220087;28;20036;-72
2023/02/23 05:53:38;;;;;;;59.13;39.47;;;;;;;9.25;100.00;101253.91;5223717;28;20060;-72
2023/02/23 05:56:17;;;;;;;57.25;39.95;;;;;;;9.32;100.00;101256.91;5221971;28;20520;-72
2023/02/23 05:58:50;;;;;;;58.05;39.35;;;;;;;9.25;100.00;101259.16;5224162;28;20032;-72
2023/02/23 06:01:23;;;;;;;56.70;39.97;;;;;;;9.25;100.00;101262.59;5221739;28;20487;-72
2023/02/23 06:03:54;;;;;;;55.97;39.17;;;;;;;9.27;100.00;101250.22;5221950;28;20028;-72
2023/02/23 06:06:27;;;;;;;55.92;39.17;;;;;;;9.25;100.00;101253.91;5223351;28;20387;-72
2023/02/23 06:08:58;;;;;;;56.50;38.80;;;;;;;9.31;100.00;101252.63;5220481;28;20024;-72
2023/02/23 06:11:30;;;;;;;57.08;39.85;;;;;;;9.21;100.00;101253.31;5204889;28;20033;-72
2023/02/23 06:14:01;;;;;;;54.75;37.72;;;;;;;9.17;100.00;101253.66;5226592;28;20035;-72
2023/02/23 06:16:32;;;;;;;53.65;38.33;;;;;;;9.21;100.00;101268.16;5222943;28;20018;-73
2023/02/23 06:19:04;;;;;;;56.42;38.70;;;;;;;9.23;100.00;101263.63;5220937;28;20056;-72
2023/02/23 06:21:35;;;;;;;57.08;38.90;;;;;;;9.24;100.00;101266.16;5222282;28;20068;-72
2023/02/23 06:24:06;;;;;;;55.22;38.72;;;;;;;9.18;100.00;101268.38;5221612;28;20028;-72
2023/02/23 06:26:38;;;;;;;52.47;38.13;;;;;;;9.20;100.00;101266.47;5212929;28;20548;-73
2023/02/23 06:29:10;;;;;;;56.78;39.67;;;;;;;9.18;100.00;101268.38;5220251;28;20675;-72
2023/02/23 06:31:42;;;;;;;58.90;40.80;;;;;;;9.23;100.00;101277.53;5218384;28;20471;-72
2023/02/23 06:34:13;;;;;;;58.13;40.20;;;;;;;9.21;100.00;101273.38;5221669;28;20885;-72
2023/02/23 06:36:45;;;;;;;57.95;40.70;;;;;;;9.21;100.00;101286.47;5220997;28;20026;-73
2023/02/23 06:39:16;;;;;;;52.17;37.42;;;;;;;9.19;100.00;101283.09;5224492;28;20073;-72
2023/02/23 06:41:47;;;;;;;54.30;38.72;;;;;;;9.18;100.00;101291.91;5218269;28;20030;-73
2023/02/23 06:44:18;;;;;;;52.88;37.25;;;;;;;9.17;100.00;101296.31;5215030;28;20032;-73
2023/02/23 06:46:50;;;;;;;57.80;39.63;;;;;;;9.17;100.00;101291.06;5222243;28;20022;-72
2023/02/23 06:49:21;;;;;;;55.85;39.50;;;;;;;9.22;100.00;101296.78;5223554;28;20022;-73
2023/02/23 06:51:52;;;;;;;54.42;37.60;;;;;;;9.20;100.00;101293.44;5213672;28;20040;-72
2023/02/23 06:54:25;;;;;;;52.05;36.63;;;;;;;9.22;100.00;101295.97;5213660;28;20568;-73
2023/02/23 06:56:56;;;;;;;53.77;37.40;;;;;;;9.20;100.00;101288.22;5218020;28;20064;-72
2023/02/23 06:59:28;;;;;;;51.05;37.00;;;;;;;9.18;100.00;101295.34;5203850;28;20030;-72
2023/02/23 07:02:00;;;;;;;53.10;37.47;;;;;;;9.18;100.00;101292.72;5223692;28;20484;-72
2023/02/23 07:04:32;;;;;;;52.17;36.33;;;;;;;9.16;100.00;101296.41;5219346;28;20088;-73
2023/02/23 07:07:04;;;;;;;52.10;36.67;;;;;;;9.13;100.00;101297.47;5221736;28;20033;-72
2023/02/23 07:09:35;;;;;;;52.40;37.17;;;;;;;9.16;100.00;101312.91;5225711;28;20018;-72
2023/02/23 07:12:07;;;;;;;55.72;38.25;;;;;;;9.17;100.00;101311.16;5220173;28;20052;-72
2023/02/23 07:14:38;;;;;;;54.65;38.20;;;;;;;9.13;100.00;101321.00;5223228;28;20029;-72
2023/02/23 07:17:10;;;;;;;55.47;37.70;;;;;;;9.19;100.00;101328.38;5221562;28;20395;-73
2023/02/23 07:19:41;;;;;;;55.13;37.33;;;;;;;9.22;100.00;101324.72;5226096;28;20051;-72
2023/02/23 07:22:12;;;;;;;54.25;37.47;;;;;;;9.23;100.00;101335.06;5222726;28;20034;-73
2023/02/23 07:24:43;;;;;;;56.13;38.25;;;;;;;9.20;100.00;101334.44;5222918;28;20022;-73
2023/02/23 07:27:15;;;;;;;54.25;38.33;;;;;;;9.21;100.00;101341.38;5220377;28;20041;-73
2023/02/23 07:29:46;;;;;;;53.47;36.92;;;;;;;9.23;100.00;101335.06;5212062;28;20030;-73
2023/02/23 07:32:17;;;;;;;55.75;38.13;;;;;;;9.27;100.00;101346.13;5222887;28;20026;-73
2023/02/23 07:34:48;;;;;;;56.22;39.90;;;;;;;9.22;100.00;101350.88;5220942;28;20030;-72
2023/02/23 07:37:20;;;;;;;55.90;38.67;;;;;;;9.22;100.00;101351.69;5222465;28;20021;-73
2023/02/23 07:39:51;;;;;;;60.45;39.67;;;;;;;9.23;100.00;101360.38;5216477;28;20090;-73
2023/02/23 07:42:22;;;;;;;55.40;39.03;;;;;;;9.27;100.00;101361.81;5221748;28;20123;-72
2023/02/23 07:44:54;;;;;;;58.90;39.88;;;;;;;9.31;100.00;101373.72;5221063;28;20509;-73
2023/02/23 07:47:30;;;;;;;57.45;39.65;;;;;;;9.29;100.00;101364.34;5219918;28;20061;-73
2023/02/23 07:50:02;;;;;;;62.42;41.40;;;;;;;9.20;100.00;101371.88;5219241;28;20045;-73
2023/02/23 07:52:33;;;;;;;61.53;41.10;;;;;;;9.26;100.00;101375.84;5219769;28;20084;-73
2023/02/23 07:55:06;;;;;;;61.47;40.53;;;;;;;9.21;100.00;101381.41;5222176;28;20026;-73
2023/02/23 07:57:38;;;;;;;63.10;40.53;;;;;;;9.24;100.00;101383.81;5220475;28;20052;-73
2023/02/23 08:00:10;;;;;;;58.38;39.92;;;;;;;9.27;100.00;101386.19;5219080;28;20025;-73
2023/02/23 08:02:41;;;;;;;62.67;41.15;;;;;;;9.21;100.00;101384.03;5220412;28;20028;-72
2023/02/23 08:05:13;;;;;;;62.58;42.15;;;;;;;9.32;100.00;101393.72;5221511;28;20034;-73
2023/02/23 08:07:45;;;;;;;58.80;40.28;;;;;;;9.38;100.00;101397.69;5224260;28;20106;-73
2023/02/23 08:10:16;;;;;;;62.05;40.58;;;;;;;9.39;100.00;101397.56;5224532;28;20485;-73
2023/02/23 08:12:48;;;;;;;62.80;41.45;;;;;;;9.40;100.00;101398.41;5224545;28;20034;-74
2023/02/23 08:15:19;;;;;;;62.80;41.28;;;;;;;9.40;100.00;101396.63;5223858;28;20025;-73
2023/02/23 08:17:51;;;;;;;56.75;39.55;;;;;;;9.44;100.00;101387.63;5222577;28;20033;-73
2023/02/23 08:20:23;;;;;;;57.65;38.90;;;;;;;9.50;100.00;101399.41;5227483;28;20047;-73
2023/02/23 08:22:56;;;;;;;58.67;39.13;;;;;;;9.49;100.00;101397.75;5204666;28;20029;-73
2023/02/23 08:25:27;;;;;;;55.22;37.17;;;;;;;9.54;100.00;101406.09;5224546;28;20037;-73
2023/02/23 08:28:03;;;;;;;58.17;39.80;;;;;;;9.56;100.00;101408.63;5222106;28;20483;-73
2023/02/23 08:30:34;;;;;;;61.97;41.22;;;;;;;9.57;100.00;101412.91;5224496;28;20033;-73
2023/02/23 08:33:06;;;;;;;59.92;41.15;;;;;;;9.60;100.00;101412.69;5224087;28;20040;-73
2023/02/23 08:35:37;;;;;;;57.95;39.70;;;;;;;9.65;100.00;101419.25;5206511;28;20021;-73
2023/02/23 08:38:08;;;;;;;57.55;37.80;;;;;;;9.70;100.00;101419.75;5226326;28;20450;-73
2023/02/23 08:40:40;;;;;;;57.33;39.53;;;;;;;9.71;100.00;101415.38;5222947;28;20467;-73
2023/02/23 08:43:11;;;;;;;56.42;39.95;;;;;;;9.72;100.00;101422.25;5225241;28;20463;-73
2023/02/23 08:45:42;;;;;;;57.58;38.85;;;;;;;9.73;100.00;101426.53;5225194;28;20041;-73
2023/02/23 08:48:13;;;;;;;63.28;41.88;;;;;;;9.81;100.00;101431.22;5223732;28;20026;-73
2023/02/23 08:50:48;;;;;;;63.85;40.85;;;;;;;9.86;100.00;101419.50;5224977;28;20041;-73
2023/02/23 08:53:21;;;;;;;59.13;40.30;;;;;;;9.72;100.00;101417.03;5225254;28;20588;-73
2023/02/23 08:56:00;;;;;;;59.88;39.50;;;;;;;9.91;100.00;101430.44;5227720;28;20220;-73
2023/02/23 08:58:32;;;;;;;63.38;40.35;;;;;;;9.82;100.00;101438.97;5218402;28;20022;-73
2023/02/23 09:01:04;;;;;;;65.00;41.90;;;;;;;9.69;100.00;101432.94;5223900;28;20057;-74
2023/02/23 09:03:36;;;;;;;62.65;41.75;;;;;;;9.72;100.00;101435.34;5222562;28;20040;-73
2023/02/23 09:06:11;;;;;;;61.90;40.33;;;;;;;9.85;100.00;101444.00;5226154;28;20026;-74
2023/02/23 09:08:42;;;;;;;61.63;40.95;;;;;;;9.84;100.00;101447.53;5218046;28;20073;-73
2023/02/23 09:11:14;;;;;;;61.13;40.60;;;;;;;9.85;100.00;101445.75;5225009;28;20192;-73
2023/02/23 09:13:45;;;;;;;58.88;39.63;;;;;;;9.82;100.00;101449.44;5225946;28;20309;-73
2023/02/23 09:16:17;;;;;;;59.55;39.67;;;;;;;9.81;100.00;101446.91;5222042;28;20080;-73
2023/02/23 09:18:48;;;;;;;60.08;40.65;;;;;;;9.75;100.00;101446.41;5224931;28;20013;-73
2023/02/23 09:21:23;;;;;;;60.85;40.63;;;;;;;9.74;100.00;101444.75;5225290;28;20107;-73
2023/02/23 09:23:55;;;;;;;57.03;38.97;;;;;;;9.80;100.00;101458.34;5225658;28;20193;-73
2023/02/23 09:26:28;;;;;;;55.38;36.38;;;;;;;9.85;100.00;101456.22;5221706;28;20570;-73
2023/02/23 09:29:00;;;;;;;59.42;38.42;;;;;;;9.90;100.00;101460.19;5224387;28;20021;-73
2023/02/23 09:31:32;;;;;;;53.85;36.92;;;;;;;9.89;100.00;101462.94;5223337;28;20423;-73
2023/02/23 09:34:03;;;;;;;54.65;38.88;;;;;;;9.91;100.00;101467.09;5224648;28;20383;-73
2023/02/23 09:36:35;;;;;;;58.47;39.30;;;;;;;9.94;100.00;101472.09;5225703;28;20048;-73
2023/02/23 09:39:06;;;;;;;53.25;37.40;;;;;;;9.92;100.00;101474.00;5224424;28;20029;-73
2023/02/23 09:41:59;;;;;;;55.17;37.85;;;;;;;10.01;100.00;101477.75;5223307;28;20042;-73
2023/02/23 09:44:45;;;;;;;56.00;36.75;;;;;;;9.94;100.00;101474.72;5219955;28;20034;-73
2023/02/23 09:47:44;;;;;;;52.10;37.15;;;;;;;10.28;100.00;101469.69;5224605;28;20061;-73
2023/02/23 09:50:21;;;;;;;52.45;36.20;;;;;;;10.20;100.00;101474.63;5223934;28;20037;-73
2023/02/23 09:53:00;;;;;;;49.65;34.85;;;;;;;10.19;100.00;101472.94;5223155;28;20037;-73
2023/02/23 09:55:32;;;;;;;48.85;34.80;;;;;;;10.13;100.00;101481.25;5224720;28;20056;-74
2023/02/23 09:58:22;;;;;;;47.05;34.50;;;;;;;10.39;100.00;101482.81;5225279;28;20336;-73
2023/02/23 10:00:59;;;;;;;51.28;35.30;;;;;;;10.31;100.00;101484.34;5221119;28;20467;-73
2023/02/23 10:03:33;;;;;;;47.88;35.47;;;;;;;10.21;100.00;101482.34;5187842;28;20029;-73
2023/02/23 10:06:10;;;;;;;48.60;35.28;;;;;;;10.31;100.00;101479.94;5224147;28;20960;-73
2023/02/23 10:09:02;;;;;;;47.72;34.22;;;;;;;10.43;100.00;101486.88;5221416;28;20060;-74
2023/02/23 10:11:40;;;;;;;47.67;33.20;;;;;;;10.28;100.00;101489.81;5222933;28;20071;-74
2023/02/23 10:14:36;;;;;;;44.13;32.78;;;;;;;10.35;100.00;101486.63;5223399;28;20152;-74
2023/02/23 10:17:19;;;;;;;46.45;33.38;;;;;;;10.40;100.00;101481.88;5224650;28;20486;-74
2023/02/23 10:20:29;;;;;;;48.35;33.72;;;;;;;10.39;100.00;101479.38;5223781;28;20084;-74
2023/02/23 10:23:05;;;;;;;45.67;32.67;;;;;;;10.39;100.00;101485.44;5120555;29;20040;-74
2023/02/23 10:25:41;;;;;;;50.35;34.20;;;;;;;10.39;100.00;101488.06;5208490;28;20108;-74
2023/02/23 10:28:20;;;;;;;47.55;33.70;;;;;;;10.42;100.00;101482.59;5204540;28;20029;-74
2023/02/23 10:30:54;;;;;;;44.95;32.83;;;;;;;10.34;100.00;101487.59;5221251;28;20040;-75
2023/02/23 10:33:34;;;;;;;48.13;33.72;;;;;;;10.56;100.00;101483.34;5220851;28;20034;-74
2023/02/23 10:36:45;;;;;;;45.45;33.00;;;;;;;10.81;100.00;101472.72;5222452;28;20034;-74
2023/02/23 10:39:17;;;;;;;46.35;32.20;;;;;;;10.54;100.00;101485.28;5209403;28;20048;-74
2023/02/23 10:41:48;;;;;;;42.80;31.52;;;;;;;10.53;100.00;101494.06;5225188;28;20621;-74
2023/02/23 10:44:23;;;;;;;45.28;32.17;;;;;;;10.56;100.00;101492.03;5220161;28;20373;-74
2023/02/23 10:47:08;;;;;;;44.33;32.78;;;;;;;10.75;100.00;101498.53;5225199;28;20036;-74
2023/02/23 10:49:43;;;;;;;40.90;31.63;;;;;;;10.71;100.00;101501.38;5222890;28;20033;-74
2023/02/23 10:52:20;;;;;;;47.55;33.95;;;;;;;10.75;100.00;101490.66;5203632;28;20037;-74
2023/02/23 10:54:51;;;;;;;42.20;31.05;;;;;;;10.65;100.00;101494.00;5221038;28;20029;-74
2023/02/23 10:57:28;;;;;;;45.17;33.92;;;;;;;10.68;100.00;101492.91;5218567;28;20211;-74
2023/02/23 11:00:01;;;;;;;44.75;34.00;;;;;;;10.67;100.00;101492.09;5221604;28;20029;-74
2023/02/23 11:02:33;;;;;;;48.00;35.70;;;;;;;10.61;100.00;101491.72;5223936;28;20092;-74
2023/02/23 11:05:06;;;;;;;45.45;33.47;;;;;;;10.68;100.00;101500.78;5221501;28;20479;-74
2023/02/23 11:07:38;;;;;;;46.95;36.22;;;;;;;10.61;100.00;101500.41;5222599;28;20438;-74
2023/02/23 11:10:26;;;;;;;47.08;34.50;;;;;;;10.90;100.00;101497.38;5222944;28;20029;-75
2023/02/23 11:12:57;;;;;;;46.78;34.20;;;;;;;10.63;100.00;101505.53;5223023;28;20033;-74
2023/02/23 11:15:33;;;;;;;45.60;34.67;;;;;;;10.77;100.00;101510.59;5220546;28;20106;-74
2023/02/23 11:18:05;;;;;;;46.80;33.65;;;;;;;10.69;100.00;101510.34;5224187;28;20493;-74
2023/02/23 11:20:43;;;;;;;47.50;34.60;;;;;;;10.69;100.00;101503.31;5221025;28;20115;-74
2023/02/23 11:23:21;;;;;;;46.63;34.60;;;;;;;10.75;100.00;101502.00;5221582;28;20056;-74
2023/02/23 11:25:54;;;;;;;45.42;33.75;;;;;;;10.75;100.00;101503.78;5221161;28;20104;-74
2023/02/23 11:28:32;;;;;;;44.35;31.95;;;;;;;11.00;100.00;101502.78;5222059;28;20383;-73
2023/02/23 11:31:15;;;;;;;44.42;34.08;;;;;;;11.06;100.00;101499.66;5223959;28;20038;-73
2023/02/23 11:33:48;;;;;;;44.72;32.17;;;;;;;10.85;100.00;101491.66;5204314;28;20017;-73
2023/02/23 11:36:23;;;;;;;42.92;31.27;;;;;;;11.02;100.00;101498.22;5221925;28;20074;-73
2023/02/23 11:39:05;;;;;;;39.90;30.08;;;;;;;11.14;100.00;101495.53;5221567;28;20032;-73
2023/02/23 11:41:37;;;;;;;41.07;30.27;;;;;;;10.99;100.00;101493.25;5221408;28;20053;-73
2023/02/23 11:44:20;;;;;;;37.65;28.42;;;;;;;11.23;100.00;101488.72;5225604;28;20785;-73
2023/02/23 11:46:51;;;;;;;42.50;30.75;;;;;;;11.12;100.00;101492.16;5210191;28;20368;-74
2023/02/23 11:49:32;;;;;;;43.55;31.65;;;;;;;11.23;100.00;101493.16;5226521;28;20018;-73
2023/02/23 11:52:14;;;;;;;38.83;28.20;;;;;;;11.27;100.00;101491.94;5226394;28;20045;-73
2023/02/23 11:55:00;;;;;;;39.55;28.25;;;;;;;11.31;100.00;101499.47;5227339;28;20112;-73
2023/02/23 11:57:34;;;;;;;36.38;28.00;;;;;;;11.13;100.00;101503.50;5222249;28;20026;-73
2023/02/23 12:00:20;;;;;;;36.90;26.70;;;;;;;11.26;100.00;101501.63;5219517;28;20531;-73
2023/02/23 12:02:57;;;;;;;35.97;26.48;;;;;;;11.21;100.00;101498.50;5225981;28;20029;-73
2023/02/23 12:05:30;;;;;;;37.55;27.75;;;;;;;11.23;100.00;101493.97;5222672;28;20045;-73
2023/02/23 12:08:21;;;;;;;;;;;;;;;11.95;100.00;101498.84;5225940;28;20475;-73
2023/02/23 12:10:57;;;;;;;30.75;23.35;;;;;;;11.37;100.00;101483.25;5226019;28;20390;-73
2023/02/23 12:13:41;;;;;;;31.67;23.67;;;;;;;11.44;100.00;101479.19;5226495;28;20032;-73
2023/02/23 12:16:21;;;;;;;31.90;24.23;;;;;;;11.36;100.00;101463.19;5224855;28;20399;-73
2023/02/23 12:19:03;;;;;;;28.73;22.17;;;;;;;11.31;100.00;101470.59;5219918;28;20513;-73
2023/02/23 12:21:41;;;;;;;31.75;23.70;;;;;;;11.24;100.00;101479.06;5224341;28;20064;-73
2023/02/23 12:24:24;;;;;;;30.23;21.77;;;;;;;11.35;100.00;101468.56;5221559;28;20061;-73
2023/02/23 12:27:05;;;;;;;32.25;23.17;;;;;;;11.28;100.00;101470.84;5222826;28;20108;-73
2023/02/23 12:30:24;;;;;;;30.77;22.17;;;;;;;11.48;100.00;101471.94;5204635;28;20044;-73
2023/02/23 12:33:04;;;;;;;30.00;22.30;;;;;;;11.41;100.00;101482.06;5174956;28;20057;-74
2023/02/23 12:35:53;;;;;;;28.73;21.42;;;;;;;11.51;100.00;101481.31;5224726;28;20029;-73
2023/02/23 12:38:51;;;;;;;30.92;21.77;;;;;;;11.58;100.00;101478.09;5220837;28;20030;-73
2023/02/23 12:41:42;;;;;;;27.73;20.50;;;;;;;11.66;100.00;101472.25;5221930;28;20033;-73
2023/02/23 12:44:32;;;;;;;27.30;21.52;;;;;;;11.54;100.00;101475.84;5226251;28;20048;-73
2023/02/23 12:47:15;;;;;;;27.52;20.77;;;;;;;11.50;100.00;101472.63;5230205;28;20527;-73
2023/02/23 12:49:59;;;;;;;27.98;21.33;;;;;;;11.53;100.00;101469.75;5224063;28;20498;-73
2023/02/23 12:52:35;;;;;;;25.25;19.73;;;;;;;11.43;100.00;101472.25;5206162;28;20133;-74
2023/02/23 12:55:12;;;;;;;27.42;19.38;;;;;;;11.42;100.00;101472.41;5229085;28;20352;-74
2023/02/23 12:58:11;;;;;;;23.30;18.33;;;;;;;11.52;100.00;101473.34;5220718;28;20109;-74
2023/02/23 13:00:57;;;;;;;26.33;20.08;;;;;;;11.28;100.00;101477.88;5227713;28;20029;-74
2023/02/23 13:03:42;;;;;;;21.08;15.45;;;;;;;11.23;100.00;101482.66;5221450;28;20104;-74
2023/02/23 13:06:41;;;;;;;18.65;14.45;;;;;;;11.32;100.00;101474.88;5219447;28;20036;-74
2023/02/23 13:09:29;;;;;;;22.30;15.45;;;;;;;11.24;100.00;101468.56;5223143;28;20116;-74